sensor_id;sensor_type;location;lat;lon;timestamp;P1;durP1;ratioP1;P2;durP2;ratioP2
20711;SDS011;10517;50.742;4.224;2024-01-15T00:02:11;3.20;;;1.83;;
20711;SDS011;10517;50.742;4.224;2024-01-15T00:04:37;4.20;;;1.93;;
20711;SDS011;10517;50.742;4.224;2024-01-15T00:07:04;6.90;;;2.00;;
20711;SDS011;10517;50.742;4.224;2024-01-15T00:09:30;2.83;;;1.73;;
20711;SDS011;10517;50.742;4.224;2024-01-15T00:11:55;5.73;;;2.27;;
20711;SDS011;10517;50.742;4.224;2024-01-15T00:14:21;3.20;;;2.20;;
20711;SDS011;10517;50.742;4.224;2024-01-15T00:16:46;6.40;;;1.93;;
20711;SDS011;10517;50.742;4.224;2024-01-15T00:19:14;8.53;;;2.57;;
20711;SDS011;10517;50.742;4.224;2024-01-15T00:21:40;5.50;;;1.93;;
20711;SDS011;10517;50.742;4.224;2024-01-15T00:24:05;3.17;;;1.27;;
20711;SDS011;10517;50.742;4.224;2024-01-15T00:26:31;5.03;;;1.97;;
20711;SDS011;10517;50.742;4.224;2024-01-15T00:28:56;7.77;;;2.27;;
20711;SDS011;10517;50.742;4.224;2024-01-15T00:31:22;4.30;;;1.77;;
20711;SDS011;10517;50.742;4.224;2024-01-15T00:33:47;5.97;;;1.83;;
20711;SDS011;10517;50.742;4.224;2024-01-15T00:36:13;5.30;;;2.63;;
20711;SDS011;10517;50.742;4.224;2024-01-15T00:38:39;2.23;;;1.33;;
20711;SDS011;10517;50.742;4.224;2024-01-15T00:41:05;9.10;;;2.17;;
20711;SDS011;10517;50.742;4.224;2024-01-15T00:43:30;13.23;;;2.67;;
20711;SDS011;10517;50.742;4.224;2024-01-15T00:45:56;2.20;;;1.57;;
20711;SDS011;10517;50.742;4.224;2024-01-15T00:48:21;4.73;;;1.77;;
20711;SDS011;10517;50.742;4.224;2024-01-15T00:50:47;6.40;;;2.10;;
20711;SDS011;10517;50.742;4.224;2024-01-15T00:53:12;12.63;;;2.60;;
20711;SDS011;10517;50.742;4.224;2024-01-15T00:55:38;3.70;;;1.93;;
20711;SDS011;10517;50.742;4.224;2024-01-15T00:58:03;9.83;;;2.30;;
20711;SDS011;10517;50.742;4.224;2024-01-15T01:00:29;7.23;;;2.77;;
20711;SDS011;10517;50.742;4.224;2024-01-15T01:02:54;5.13;;;2.33;;
20711;SDS011;10517;50.742;4.224;2024-01-15T01:05:20;6.90;;;2.43;;
20711;SDS011;10517;50.742;4.224;2024-01-15T01:07:45;2.90;;;1.40;;
20711;SDS011;10517;50.742;4.224;2024-01-15T01:10:11;4.90;;;1.83;;
20711;SDS011;10517;50.742;4.224;2024-01-15T01:12:36;3.87;;;1.77;;
20711;SDS011;10517;50.742;4.224;2024-01-15T01:15:02;5.30;;;2.10;;
20711;SDS011;10517;50.742;4.224;2024-01-15T01:17:28;3.20;;;2.33;;
20711;SDS011;10517;50.742;4.224;2024-01-15T01:19:53;3.20;;;1.43;;
20711;SDS011;10517;50.742;4.224;2024-01-15T01:22:19;3.50;;;1.80;;
20711;SDS011;10517;50.742;4.224;2024-01-15T01:24:44;3.00;;;1.43;;
20711;SDS011;10517;50.742;4.224;2024-01-15T01:27:10;5.23;;;2.00;;
20711;SDS011;10517;50.742;4.224;2024-01-15T01:29:35;3.67;;;1.00;;
20711;SDS011;10517;50.742;4.224;2024-01-15T01:32:01;4.10;;;1.73;;
20711;SDS011;10517;50.742;4.224;2024-01-15T01:34:26;5.73;;;1.93;;
20711;SDS011;10517;50.742;4.224;2024-01-15T01:36:52;5.00;;;2.00;;
20711;SDS011;10517;50.742;4.224;2024-01-15T01:39:18;7.93;;;2.43;;
20711;SDS011;10517;50.742;4.224;2024-01-15T01:41:43;3.30;;;1.30;;
20711;SDS011;10517;50.742;4.224;2024-01-15T01:44:09;3.30;;;1.70;;
20711;SDS011;10517;50.742;4.224;2024-01-15T01:46:34;3.73;;;1.63;;
20711;SDS011;10517;50.742;4.224;2024-01-15T01:49:05;3.37;;;1.37;;
20711;SDS011;10517;50.742;4.224;2024-01-15T01:51:32;7.23;;;1.63;;
20711;SDS011;10517;50.742;4.224;2024-01-15T01:54:00;7.97;;;2.20;;
20711;SDS011;10517;50.742;4.224;2024-01-15T01:56:26;1.40;;;1.23;;
20711;SDS011;10517;50.742;4.224;2024-01-15T01:58:52;2.20;;;1.53;;
20711;SDS011;10517;50.742;4.224;2024-01-15T02:01:17;1.70;;;1.40;;
20711;SDS011;10517;50.742;4.224;2024-01-15T02:03:43;7.47;;;2.00;;
20711;SDS011;10517;50.742;4.224;2024-01-15T02:06:09;1.57;;;1.30;;
20711;SDS011;10517;50.742;4.224;2024-01-15T02:08:35;1.80;;;1.33;;
20711;SDS011;10517;50.742;4.224;2024-01-15T02:11:01;6.10;;;1.50;;
20711;SDS011;10517;50.742;4.224;2024-01-15T02:13:27;5.20;;;1.83;;
20711;SDS011;10517;50.742;4.224;2024-01-15T02:15:52;5.87;;;2.20;;
20711;SDS011;10517;50.742;4.224;2024-01-15T02:18:18;4.63;;;1.60;;
20711;SDS011;10517;50.742;4.224;2024-01-15T02:20:45;5.87;;;1.70;;
20711;SDS011;10517;50.742;4.224;2024-01-15T02:23:11;4.70;;;2.70;;
20711;SDS011;10517;50.742;4.224;2024-01-15T02:25:39;3.03;;;1.40;;
20711;SDS011;10517;50.742;4.224;2024-01-15T02:28:06;4.30;;;2.27;;
20711;SDS011;10517;50.742;4.224;2024-01-15T02:30:34;6.53;;;2.07;;
20711;SDS011;10517;50.742;4.224;2024-01-15T02:33:04;3.57;;;1.33;;
20711;SDS011;10517;50.742;4.224;2024-01-15T02:35:29;3.97;;;1.63;;
20711;SDS011;10517;50.742;4.224;2024-01-15T02:37:55;2.73;;;1.40;;
20711;SDS011;10517;50.742;4.224;2024-01-15T02:40:20;4.87;;;1.60;;
20711;SDS011;10517;50.742;4.224;2024-01-15T02:42:46;2.77;;;1.57;;
20711;SDS011;10517;50.742;4.224;2024-01-15T02:45:12;5.53;;;2.00;;
20711;SDS011;10517;50.742;4.224;2024-01-15T02:47:37;9.03;;;2.03;;
20711;SDS011;10517;50.742;4.224;2024-01-15T02:50:03;2.03;;;1.47;;
20711;SDS011;10517;50.742;4.224;2024-01-15T02:52:29;8.20;;;2.97;;
20711;SDS011;10517;50.742;4.224;2024-01-15T02:54:54;7.90;;;1.83;;
20711;SDS011;10517;50.742;4.224;2024-01-15T02:57:20;7.80;;;2.27;;
20711;SDS011;10517;50.742;4.224;2024-01-15T02:59:45;7.27;;;3.03;;
20711;SDS011;10517;50.742;4.224;2024-01-15T03:02:11;6.27;;;1.97;;
20711;SDS011;10517;50.742;4.224;2024-01-15T03:04:36;2.70;;;2.10;;
20711;SDS011;10517;50.742;4.224;2024-01-15T03:07:02;7.90;;;2.93;;
20711;SDS011;10517;50.742;4.224;2024-01-15T03:09:27;3.57;;;1.57;;
20711;SDS011;10517;50.742;4.224;2024-01-15T03:11:53;5.97;;;2.17;;
20711;SDS011;10517;50.742;4.224;2024-01-15T03:14:18;4.97;;;2.07;;
20711;SDS011;10517;50.742;4.224;2024-01-15T03:16:45;7.67;;;2.73;;
20711;SDS011;10517;50.742;4.224;2024-01-15T03:19:11;2.43;;;1.37;;
20711;SDS011;10517;50.742;4.224;2024-01-15T03:21:36;4.97;;;2.67;;
20711;SDS011;10517;50.742;4.224;2024-01-15T03:24:02;6.33;;;1.57;;
20711;SDS011;10517;50.742;4.224;2024-01-15T03:26:27;4.30;;;1.40;;
20711;SDS011;10517;50.742;4.224;2024-01-15T03:28:53;7.00;;;2.07;;
20711;SDS011;10517;50.742;4.224;2024-01-15T03:31:18;5.33;;;3.20;;
20711;SDS011;10517;50.742;4.224;2024-01-15T03:33:44;4.33;;;3.43;;
20711;SDS011;10517;50.742;4.224;2024-01-15T03:36:09;4.03;;;3.17;;
20711;SDS011;10517;50.742;4.224;2024-01-15T03:38:35;5.63;;;2.90;;
20711;SDS011;10517;50.742;4.224;2024-01-15T03:41:05;8.53;;;2.57;;
20711;SDS011;10517;50.742;4.224;2024-01-15T03:43:31;7.10;;;2.23;;
20711;SDS011;10517;50.742;4.224;2024-01-15T03:45:56;10.37;;;3.07;;
20711;SDS011;10517;50.742;4.224;2024-01-15T03:48:22;6.37;;;1.50;;
20711;SDS011;10517;50.742;4.224;2024-01-15T03:50:47;5.57;;;2.67;;
20711;SDS011;10517;50.742;4.224;2024-01-15T03:53:13;4.83;;;2.47;;
20711;SDS011;10517;50.742;4.224;2024-01-15T03:55:38;8.60;;;3.17;;
20711;SDS011;10517;50.742;4.224;2024-01-15T03:58:04;7.03;;;1.77;;
20711;SDS011;10517;50.742;4.224;2024-01-15T04:00:29;7.53;;;3.27;;
20711;SDS011;10517;50.742;4.224;2024-01-15T04:02:55;4.47;;;1.63;;
20711;SDS011;10517;50.742;4.224;2024-01-15T04:05:20;6.70;;;2.40;;
20711;SDS011;10517;50.742;4.224;2024-01-15T04:07:46;3.67;;;1.80;;
20711;SDS011;10517;50.742;4.224;2024-01-15T04:10:12;9.83;;;2.10;;
20711;SDS011;10517;50.742;4.224;2024-01-15T04:12:37;4.20;;;1.87;;
20711;SDS011;10517;50.742;4.224;2024-01-15T04:15:03;2.80;;;1.60;;
20711;SDS011;10517;50.742;4.224;2024-01-15T04:17:29;4.93;;;2.47;;
20711;SDS011;10517;50.742;4.224;2024-01-15T04:19:54;6.33;;;1.37;;
20711;SDS011;10517;50.742;4.224;2024-01-15T04:22:20;5.37;;;1.80;;
20711;SDS011;10517;50.742;4.224;2024-01-15T04:24:45;4.10;;;1.77;;
20711;SDS011;10517;50.742;4.224;2024-01-15T04:27:11;4.20;;;2.33;;
20711;SDS011;10517;50.742;4.224;2024-01-15T04:29:39;7.63;;;2.07;;
20711;SDS011;10517;50.742;4.224;2024-01-15T04:32:05;3.53;;;1.53;;
20711;SDS011;10517;50.742;4.224;2024-01-15T04:34:31;3.80;;;1.60;;
20711;SDS011;10517;50.742;4.224;2024-01-15T04:36:56;8.10;;;2.83;;
20711;SDS011;10517;50.742;4.224;2024-01-15T04:39:22;2.73;;;1.83;;
20711;SDS011;10517;50.742;4.224;2024-01-15T04:41:48;2.67;;;1.50;;
20711;SDS011;10517;50.742;4.224;2024-01-15T04:44:13;3.93;;;1.50;;
20711;SDS011;10517;50.742;4.224;2024-01-15T04:46:39;3.27;;;1.60;;
20711;SDS011;10517;50.742;4.224;2024-01-15T04:49:05;1.80;;;1.10;;
20711;SDS011;10517;50.742;4.224;2024-01-15T04:51:30;1.70;;;1.20;;
20711;SDS011;10517;50.742;4.224;2024-01-15T04:53:56;13.87;;;1.43;;
20711;SDS011;10517;50.742;4.224;2024-01-15T04:56:21;5.70;;;1.73;;
20711;SDS011;10517;50.742;4.224;2024-01-15T04:58:47;1.40;;;0.93;;
20711;SDS011;10517;50.742;4.224;2024-01-15T05:01:12;5.77;;;2.47;;
20711;SDS011;10517;50.742;4.224;2024-01-15T05:03:38;1.20;;;1.10;;
20711;SDS011;10517;50.742;4.224;2024-01-15T05:06:04;5.00;;;1.27;;
20711;SDS011;10517;50.742;4.224;2024-01-15T05:08:30;3.23;;;1.73;;
20711;SDS011;10517;50.742;4.224;2024-01-15T05:10:55;3.80;;;2.73;;
20711;SDS011;10517;50.742;4.224;2024-01-15T05:13:20;4.97;;;1.93;;
20711;SDS011;10517;50.742;4.224;2024-01-15T05:15:46;6.30;;;2.73;;
20711;SDS011;10517;50.742;4.224;2024-01-15T05:18:12;5.37;;;2.03;;
20711;SDS011;10517;50.742;4.224;2024-01-15T05:20:38;6.60;;;2.07;;
20711;SDS011;10517;50.742;4.224;2024-01-15T05:23:03;4.93;;;2.67;;
20711;SDS011;10517;50.742;4.224;2024-01-15T05:25:29;4.50;;;2.27;;
20711;SDS011;10517;50.742;4.224;2024-01-15T05:27:54;4.50;;;2.67;;
20711;SDS011;10517;50.742;4.224;2024-01-15T05:30:20;5.83;;;2.40;;
20711;SDS011;10517;50.742;4.224;2024-01-15T05:32:45;5.90;;;2.53;;
20711;SDS011;10517;50.742;4.224;2024-01-15T05:35:11;6.37;;;2.37;;
20711;SDS011;10517;50.742;4.224;2024-01-15T05:37:36;10.17;;;2.30;;
20711;SDS011;10517;50.742;4.224;2024-01-15T05:40:03;2.40;;;1.60;;
20711;SDS011;10517;50.742;4.224;2024-01-15T05:42:29;4.73;;;2.20;;
20711;SDS011;10517;50.742;4.224;2024-01-15T05:44:56;3.33;;;2.37;;
20711;SDS011;10517;50.742;4.224;2024-01-15T05:47:24;3.53;;;1.60;;
20711;SDS011;10517;50.742;4.224;2024-01-15T05:49:49;5.40;;;2.37;;
20711;SDS011;10517;50.742;4.224;2024-01-15T05:52:15;4.33;;;2.37;;
20711;SDS011;10517;50.742;4.224;2024-01-15T05:54:41;11.40;;;2.50;;
20711;SDS011;10517;50.742;4.224;2024-01-15T05:57:06;3.33;;;1.57;;
20711;SDS011;10517;50.742;4.224;2024-01-15T05:59:32;2.27;;;1.43;;
20711;SDS011;10517;50.742;4.224;2024-01-15T06:01:59;3.57;;;1.73;;
20711;SDS011;10517;50.742;4.224;2024-01-15T06:04:24;4.67;;;1.77;;
20711;SDS011;10517;50.742;4.224;2024-01-15T06:06:50;5.03;;;1.57;;
20711;SDS011;10517;50.742;4.224;2024-01-15T06:09:15;5.43;;;2.60;;
20711;SDS011;10517;50.742;4.224;2024-01-15T06:11:41;3.90;;;1.73;;
20711;SDS011;10517;50.742;4.224;2024-01-15T06:14:06;3.10;;;1.67;;
20711;SDS011;10517;50.742;4.224;2024-01-15T06:16:32;5.83;;;1.83;;
20711;SDS011;10517;50.742;4.224;2024-01-15T06:18:57;6.80;;;1.77;;
20711;SDS011;10517;50.742;4.224;2024-01-15T06:21:23;3.47;;;1.90;;
20711;SDS011;10517;50.742;4.224;2024-01-15T06:23:48;3.10;;;1.77;;
20711;SDS011;10517;50.742;4.224;2024-01-15T06:26:14;8.53;;;2.13;;
20711;SDS011;10517;50.742;4.224;2024-01-15T06:28:40;5.60;;;1.70;;
20711;SDS011;10517;50.742;4.224;2024-01-15T06:31:08;3.63;;;1.50;;
20711;SDS011;10517;50.742;4.224;2024-01-15T06:33:34;3.70;;;1.87;;
20711;SDS011;10517;50.742;4.224;2024-01-15T06:35:59;2.53;;;1.03;;
20711;SDS011;10517;50.742;4.224;2024-01-15T06:38:25;3.07;;;1.40;;
20711;SDS011;10517;50.742;4.224;2024-01-15T06:40:51;0.87;;;0.57;;
20711;SDS011;10517;50.742;4.224;2024-01-15T06:43:16;1.50;;;0.70;;
20711;SDS011;10517;50.742;4.224;2024-01-15T06:45:43;2.50;;;1.10;;
20711;SDS011;10517;50.742;4.224;2024-01-15T06:48:09;2.70;;;1.33;;
20711;SDS011;10517;50.742;4.224;2024-01-15T06:50:35;0.80;;;0.50;;
20711;SDS011;10517;50.742;4.224;2024-01-15T06:53:00;1.27;;;1.20;;
20711;SDS011;10517;50.742;4.224;2024-01-15T06:55:26;0.40;;;0.40;;
20711;SDS011;10517;50.742;4.224;2024-01-15T06:57:52;0.60;;;0.40;;
20711;SDS011;10517;50.742;4.224;2024-01-15T07:00:18;3.47;;;0.67;;
20711;SDS011;10517;50.742;4.224;2024-01-15T07:02:44;1.03;;;0.80;;
20711;SDS011;10517;50.742;4.224;2024-01-15T07:05:10;4.70;;;0.83;;
20711;SDS011;10517;50.742;4.224;2024-01-15T07:07:36;2.10;;;0.67;;
20711;SDS011;10517;50.742;4.224;2024-01-15T07:10:02;3.53;;;1.57;;
20711;SDS011;10517;50.742;4.224;2024-01-15T07:12:28;2.53;;;1.40;;
20711;SDS011;10517;50.742;4.224;2024-01-15T07:14:55;3.07;;;1.63;;
20711;SDS011;10517;50.742;4.224;2024-01-15T07:17:21;5.73;;;1.13;;
20711;SDS011;10517;50.742;4.224;2024-01-15T07:19:47;1.33;;;1.00;;
20711;SDS011;10517;50.742;4.224;2024-01-15T07:22:12;6.23;;;2.27;;
20711;SDS011;10517;50.742;4.224;2024-01-15T07:24:38;2.97;;;1.53;;
20711;SDS011;10517;50.742;4.224;2024-01-15T07:27:03;1.80;;;1.00;;
20711;SDS011;10517;50.742;4.224;2024-01-15T07:29:29;0.87;;;0.80;;
20711;SDS011;10517;50.742;4.224;2024-01-15T07:31:57;4.03;;;1.10;;
20711;SDS011;10517;50.742;4.224;2024-01-15T07:34:23;3.13;;;0.63;;
20711;SDS011;10517;50.742;4.224;2024-01-15T07:36:49;2.03;;;1.00;;
20711;SDS011;10517;50.742;4.224;2024-01-15T07:39:14;1.00;;;0.77;;
20711;SDS011;10517;50.742;4.224;2024-01-15T07:41:40;0.77;;;0.47;;
20711;SDS011;10517;50.742;4.224;2024-01-15T07:44:05;0.37;;;0.37;;
20711;SDS011;10517;50.742;4.224;2024-01-15T07:46:31;12.63;;;1.00;;
20711;SDS011;10517;50.742;4.224;2024-01-15T07:48:57;3.77;;;0.93;;
20711;SDS011;10517;50.742;4.224;2024-01-15T07:51:25;3.13;;;0.80;;
20711;SDS011;10517;50.742;4.224;2024-01-15T07:53:54;0.40;;;0.40;;
20711;SDS011;10517;50.742;4.224;2024-01-15T07:56:20;6.70;;;0.80;;
20711;SDS011;10517;50.742;4.224;2024-01-15T07:58:46;0.33;;;0.33;;
20711;SDS011;10517;50.742;4.224;2024-01-15T08:01:12;2.33;;;1.10;;
20711;SDS011;10517;50.742;4.224;2024-01-15T08:03:37;0.80;;;0.77;;
20711;SDS011;10517;50.742;4.224;2024-01-15T08:06:03;2.10;;;0.67;;
20711;SDS011;10517;50.742;4.224;2024-01-15T08:08:30;1.13;;;0.20;;
20711;SDS011;10517;50.742;4.224;2024-01-15T08:10:55;0.93;;;0.40;;
20711;SDS011;10517;50.742;4.224;2024-01-15T08:13:21;2.10;;;0.40;;
20711;SDS011;10517;50.742;4.224;2024-01-15T08:15:46;1.37;;;0.50;;
20711;SDS011;10517;50.742;4.224;2024-01-15T08:18:12;0.53;;;0.40;;
20711;SDS011;10517;50.742;4.224;2024-01-15T08:20:37;0.83;;;0.43;;
20711;SDS011;10517;50.742;4.224;2024-01-15T08:23:03;4.97;;;0.40;;
20711;SDS011;10517;50.742;4.224;2024-01-15T08:25:29;0.90;;;0.30;;
20711;SDS011;10517;50.742;4.224;2024-01-15T08:27:56;1.03;;;0.13;;
20711;SDS011;10517;50.742;4.224;2024-01-15T08:30:22;2.23;;;0.33;;
20711;SDS011;10517;50.742;4.224;2024-01-15T08:32:52;1.60;;;0.70;;
20711;SDS011;10517;50.742;4.224;2024-01-15T08:35:20;0.90;;;0.73;;
20711;SDS011;10517;50.742;4.224;2024-01-15T08:37:48;3.60;;;0.50;;
20711;SDS011;10517;50.742;4.224;2024-01-15T08:40:14;0.97;;;0.40;;
20711;SDS011;10517;50.742;4.224;2024-01-15T08:42:41;0.50;;;0.50;;
20711;SDS011;10517;50.742;4.224;2024-01-15T08:45:06;0.80;;;0.53;;
20711;SDS011;10517;50.742;4.224;2024-01-15T08:47:32;0.60;;;0.47;;
20711;SDS011;10517;50.742;4.224;2024-01-15T08:49:58;0.50;;;0.37;;
20711;SDS011;10517;50.742;4.224;2024-01-15T08:52:24;0.57;;;0.40;;
20711;SDS011;10517;50.742;4.224;2024-01-15T08:54:49;0.40;;;0.20;;
20711;SDS011;10517;50.742;4.224;2024-01-15T08:57:15;0.30;;;0.30;;
20711;SDS011;10517;50.742;4.224;2024-01-15T08:59:41;1.40;;;1.40;;
20711;SDS011;10517;50.742;4.224;2024-01-15T09:02:06;3.73;;;0.83;;
20711;SDS011;10517;50.742;4.224;2024-01-15T09:04:32;0.37;;;0.37;;
20711;SDS011;10517;50.742;4.224;2024-01-15T09:06:58;2.10;;;0.60;;
20711;SDS011;10517;50.742;4.224;2024-01-15T09:09:24;1.37;;;1.17;;
20711;SDS011;10517;50.742;4.224;2024-01-15T09:11:50;2.67;;;1.40;;
20711;SDS011;10517;50.742;4.224;2024-01-15T09:14:16;2.60;;;0.97;;
20711;SDS011;10517;50.742;4.224;2024-01-15T09:16:41;1.07;;;0.70;;
20711;SDS011;10517;50.742;4.224;2024-01-15T09:19:07;11.10;;;1.07;;
20711;SDS011;10517;50.742;4.224;2024-01-15T09:21:33;0.30;;;0.30;;
20711;SDS011;10517;50.742;4.224;2024-01-15T09:23:58;1.10;;;0.17;;
20711;SDS011;10517;50.742;4.224;2024-01-15T09:26:24;0.93;;;0.30;;
20711;SDS011;10517;50.742;4.224;2024-01-15T09:28:50;2.00;;;0.80;;
20711;SDS011;10517;50.742;4.224;2024-01-15T09:31:15;3.03;;;0.30;;
20711;SDS011;10517;50.742;4.224;2024-01-15T09:33:42;2.87;;;0.50;;
20711;SDS011;10517;50.742;4.224;2024-01-15T09:36:09;0.60;;;0.47;;
20711;SDS011;10517;50.742;4.224;2024-01-15T09:38:34;0.83;;;0.40;;
20711;SDS011;10517;50.742;4.224;2024-01-15T09:41:00;0.20;;;0.20;;
20711;SDS011;10517;50.742;4.224;2024-01-15T09:43:25;0.60;;;0.57;;
20711;SDS011;10517;50.742;4.224;2024-01-15T09:45:51;1.47;;;0.73;;
20711;SDS011;10517;50.742;4.224;2024-01-15T09:48:18;2.53;;;1.70;;
20711;SDS011;10517;50.742;4.224;2024-01-15T09:50:44;0.20;;;0.17;;
20711;SDS011;10517;50.742;4.224;2024-01-15T09:53:10;0.30;;;0.30;;
20711;SDS011;10517;50.742;4.224;2024-01-15T09:55:36;7.27;;;0.30;;
20711;SDS011;10517;50.742;4.224;2024-01-15T09:58:05;0.63;;;0.37;;
20711;SDS011;10517;50.742;4.224;2024-01-15T10:00:31;0.50;;;0.50;;
20711;SDS011;10517;50.742;4.224;2024-01-15T10:02:58;0.20;;;0.20;;
20711;SDS011;10517;50.742;4.224;2024-01-15T10:05:25;2.73;;;0.37;;
20711;SDS011;10517;50.742;4.224;2024-01-15T10:07:51;3.93;;;0.43;;
20711;SDS011;10517;50.742;4.224;2024-01-15T10:10:19;0.80;;;0.47;;
20711;SDS011;10517;50.742;4.224;2024-01-15T10:12:46;0.43;;;0.30;;
20711;SDS011;10517;50.742;4.224;2024-01-15T10:15:13;0.33;;;0.20;;
20711;SDS011;10517;50.742;4.224;2024-01-15T10:17:39;2.70;;;0.33;;
20711;SDS011;10517;50.742;4.224;2024-01-15T10:20:11;7.13;;;0.50;;
20711;SDS011;10517;50.742;4.224;2024-01-15T10:22:41;0.27;;;0.27;;
20711;SDS011;10517;50.742;4.224;2024-01-15T10:25:09;3.47;;;0.50;;
20711;SDS011;10517;50.742;4.224;2024-01-15T10:27:35;4.40;;;0.47;;
20711;SDS011;10517;50.742;4.224;2024-01-15T10:30:01;0.27;;;0.27;;
20711;SDS011;10517;50.742;4.224;2024-01-15T10:32:28;0.87;;;0.40;;
20711;SDS011;10517;50.742;4.224;2024-01-15T10:34:54;0.20;;;0.20;;
20711;SDS011;10517;50.742;4.224;2024-01-15T10:37:19;0.30;;;0.30;;
20711;SDS011;10517;50.742;4.224;2024-01-15T10:39:48;0.23;;;0.23;;
20711;SDS011;10517;50.742;4.224;2024-01-15T10:42:14;0.20;;;0.20;;
20711;SDS011;10517;50.742;4.224;2024-01-15T10:44:41;0.30;;;0.20;;
20711;SDS011;10517;50.742;4.224;2024-01-15T10:47:08;4.33;;;0.30;;
20711;SDS011;10517;50.742;4.224;2024-01-15T10:49:34;2.33;;;0.70;;
20711;SDS011;10517;50.742;4.224;2024-01-15T10:52:00;5.10;;;0.50;;
20711;SDS011;10517;50.742;4.224;2024-01-15T10:54:27;1.07;;;0.60;;
20711;SDS011;10517;50.742;4.224;2024-01-15T10:56:53;0.77;;;0.40;;
20711;SDS011;10517;50.742;4.224;2024-01-15T10:59:20;0.50;;;0.50;;
20711;SDS011;10517;50.742;4.224;2024-01-15T11:01:47;0.57;;;0.40;;
20711;SDS011;10517;50.742;4.224;2024-01-15T11:04:14;0.60;;;0.60;;
20711;SDS011;10517;50.742;4.224;2024-01-15T11:06:44;6.43;;;0.53;;
20711;SDS011;10517;50.742;4.224;2024-01-15T11:09:12;0.97;;;0.20;;
20711;SDS011;10517;50.742;4.224;2024-01-15T11:11:41;0.30;;;0.27;;
20711;SDS011;10517;50.742;4.224;2024-01-15T11:14:09;2.73;;;0.20;;
20711;SDS011;10517;50.742;4.224;2024-01-15T11:16:53;0.50;;;0.20;;
20711;SDS011;10517;50.742;4.224;2024-01-15T11:19:21;0.30;;;0.30;;
20711;SDS011;10517;50.742;4.224;2024-01-15T11:21:47;0.53;;;0.20;;
20711;SDS011;10517;50.742;4.224;2024-01-15T11:24:32;3.47;;;0.17;;
20711;SDS011;10517;50.742;4.224;2024-01-15T11:27:08;0.23;;;0.23;;
20711;SDS011;10517;50.742;4.224;2024-01-15T11:29:34;0.10;;;0.10;;
20711;SDS011;10517;50.742;4.224;2024-01-15T11:32:02;1.27;;;0.23;;
20711;SDS011;10517;50.742;4.224;2024-01-15T11:34:49;4.13;;;0.13;;
20711;SDS011;10517;50.742;4.224;2024-01-15T11:40:40;0.27;;;0.20;;
20711;SDS011;10517;50.742;4.224;2024-01-15T11:43:07;0.57;;;0.30;;
20711;SDS011;10517;50.742;4.224;2024-01-15T11:45:34;2.17;;;0.60;;
20711;SDS011;10517;50.742;4.224;2024-01-15T11:48:10;0.20;;;0.20;;
20711;SDS011;10517;50.742;4.224;2024-01-15T11:50:47;0.10;;;0.10;;
20711;SDS011;10517;50.742;4.224;2024-01-15T11:53:37;0.47;;;0.33;;
20711;SDS011;10517;50.742;4.224;2024-01-15T11:56:16;0.20;;;0.20;;
20711;SDS011;10517;50.742;4.224;2024-01-15T11:58:43;1.20;;;0.40;;
20711;SDS011;10517;50.742;4.224;2024-01-15T12:01:10;0.70;;;0.40;;
20711;SDS011;10517;50.742;4.224;2024-01-15T12:03:36;3.50;;;0.37;;
20711;SDS011;10517;50.742;4.224;2024-01-15T12:06:01;1.37;;;0.60;;
20711;SDS011;10517;50.742;4.224;2024-01-15T12:08:30;0.53;;;0.27;;
20711;SDS011;10517;50.742;4.224;2024-01-15T12:10:55;0.40;;;0.40;;
20711;SDS011;10517;50.742;4.224;2024-01-15T12:13:21;0.20;;;0.20;;
20711;SDS011;10517;50.742;4.224;2024-01-15T12:15:47;0.20;;;0.20;;
20711;SDS011;10517;50.742;4.224;2024-01-15T12:18:14;0.70;;;0.70;;
20711;SDS011;10517;50.742;4.224;2024-01-15T12:20:41;2.90;;;0.30;;
20711;SDS011;10517;50.742;4.224;2024-01-15T12:23:08;0.10;;;0.10;;
20711;SDS011;10517;50.742;4.224;2024-01-15T12:25:35;0.40;;;0.40;;
20711;SDS011;10517;50.742;4.224;2024-01-15T12:28:01;0.10;;;0.10;;
20711;SDS011;10517;50.742;4.224;2024-01-15T12:30:27;0.40;;;0.40;;
20711;SDS011;10517;50.742;4.224;2024-01-15T12:32:54;5.30;;;1.00;;
20711;SDS011;10517;50.742;4.224;2024-01-15T12:35:20;2.20;;;1.03;;
20711;SDS011;10517;50.742;4.224;2024-01-15T12:37:45;0.20;;;0.20;;
20711;SDS011;10517;50.742;4.224;2024-01-15T12:40:12;0.30;;;0.20;;
20711;SDS011;10517;50.742;4.224;2024-01-15T12:42:39;0.20;;;0.20;;
20711;SDS011;10517;50.742;4.224;2024-01-15T12:45:06;0.53;;;0.40;;
20711;SDS011;10517;50.742;4.224;2024-01-15T12:47:32;0.20;;;0.20;;
20711;SDS011;10517;50.742;4.224;2024-01-15T12:49:57;2.13;;;0.20;;
20711;SDS011;10517;50.742;4.224;2024-01-15T12:52:26;0.40;;;0.23;;
20711;SDS011;10517;50.742;4.224;2024-01-15T12:54:52;0.73;;;0.33;;
20711;SDS011;10517;50.742;4.224;2024-01-15T12:57:18;3.70;;;0.50;;
20711;SDS011;10517;50.742;4.224;2024-01-15T12:59:44;1.03;;;0.53;;
20711;SDS011;10517;50.742;4.224;2024-01-15T13:02:10;2.40;;;0.17;;
20711;SDS011;10517;50.742;4.224;2024-01-15T13:04:39;1.63;;;0.47;;
20711;SDS011;10517;50.742;4.224;2024-01-15T13:07:05;0.40;;;0.40;;
20711;SDS011;10517;50.742;4.224;2024-01-15T13:09:32;0.40;;;0.40;;
20711;SDS011;10517;50.742;4.224;2024-01-15T13:11:58;4.60;;;0.90;;
20711;SDS011;10517;50.742;4.224;2024-01-15T13:14:24;0.77;;;0.60;;
20711;SDS011;10517;50.742;4.224;2024-01-15T13:16:50;0.37;;;0.10;;
20711;SDS011;10517;50.742;4.224;2024-01-15T13:19:16;4.43;;;0.37;;
20711;SDS011;10517;50.742;4.224;2024-01-15T13:21:42;2.77;;;0.77;;
20711;SDS011;10517;50.742;4.224;2024-01-15T13:24:07;7.27;;;0.77;;
20711;SDS011;10517;50.742;4.224;2024-01-15T13:26:33;1.90;;;0.20;;
20711;SDS011;10517;50.742;4.224;2024-01-15T13:29:01;0.20;;;0.20;;
20711;SDS011;10517;50.742;4.224;2024-01-15T13:31:28;3.73;;;0.17;;
20711;SDS011;10517;50.742;4.224;2024-01-15T13:33:54;0.97;;;0.47;;
20711;SDS011;10517;50.742;4.224;2024-01-15T13:36:21;0.93;;;0.57;;
20711;SDS011;10517;50.742;4.224;2024-01-15T13:38:50;0.20;;;0.20;;
20711;SDS011;10517;50.742;4.224;2024-01-15T13:41:17;1.17;;;0.60;;
20711;SDS011;10517;50.742;4.224;2024-01-15T13:43:44;0.53;;;0.10;;
20711;SDS011;10517;50.742;4.224;2024-01-15T13:46:11;0.87;;;0.30;;
20711;SDS011;10517;50.742;4.224;2024-01-15T13:48:36;0.43;;;0.13;;
20711;SDS011;10517;50.742;4.224;2024-01-15T13:51:02;0.00;;;0.00;;
20711;SDS011;10517;50.742;4.224;2024-01-15T13:53:27;1.40;;;0.30;;
20711;SDS011;10517;50.742;4.224;2024-01-15T13:55:54;3.60;;;0.10;;
20711;SDS011;10517;50.742;4.224;2024-01-15T13:58:20;0.90;;;0.40;;
20711;SDS011;10517;50.742;4.224;2024-01-15T14:00:46;0.67;;;0.57;;
20711;SDS011;10517;50.742;4.224;2024-01-15T14:03:12;0.10;;;0.10;;
20711;SDS011;10517;50.742;4.224;2024-01-15T14:05:37;10.03;;;0.27;;
20711;SDS011;10517;50.742;4.224;2024-01-15T14:08:03;1.93;;;1.53;;
20711;SDS011;10517;50.742;4.224;2024-01-15T14:10:29;0.10;;;0.10;;
20711;SDS011;10517;50.742;4.224;2024-01-15T14:12:54;1.80;;;0.17;;
20711;SDS011;10517;50.742;4.224;2024-01-15T14:15:20;2.07;;;0.40;;
20711;SDS011;10517;50.742;4.224;2024-01-15T14:17:46;0.20;;;0.20;;
20711;SDS011;10517;50.742;4.224;2024-01-15T14:20:12;0.47;;;0.40;;
20711;SDS011;10517;50.742;4.224;2024-01-15T14:22:38;0.27;;;0.27;;
20711;SDS011;10517;50.742;4.224;2024-01-15T14:25:03;0.40;;;0.40;;
20711;SDS011;10517;50.742;4.224;2024-01-15T14:27:29;0.10;;;0.10;;
20711;SDS011;10517;50.742;4.224;2024-01-15T14:29:55;1.07;;;1.00;;
20711;SDS011;10517;50.742;4.224;2024-01-15T14:32:20;0.30;;;0.20;;
20711;SDS011;10517;50.742;4.224;2024-01-15T14:34:46;12.27;;;0.70;;
20711;SDS011;10517;50.742;4.224;2024-01-15T14:37:12;0.20;;;0.10;;
20711;SDS011;10517;50.742;4.224;2024-01-15T14:39:37;0.00;;;0.00;;
20711;SDS011;10517;50.742;4.224;2024-01-15T14:42:03;0.30;;;0.10;;
20711;SDS011;10517;50.742;4.224;2024-01-15T14:44:29;0.67;;;0.63;;
20711;SDS011;10517;50.742;4.224;2024-01-15T14:46:54;0.40;;;0.40;;